createdAt,value
2018-04-23T05:20:39.344Z,6.20
2018-04-23T05:23:06.908Z,5.77
2018-04-23T05:25:34.370Z,7.23
2018-04-23T05:28:01.985Z,5.23
2018-04-23T05:30:29.437Z,7.03
2018-04-23T05:32:56.897Z,6.77
2018-04-23T05:35:24.361Z,6.43
2018-04-23T05:37:51.862Z,10.23
2018-04-23T05:40:19.333Z,6.17
2018-04-23T05:42:46.808Z,7.30
2018-04-23T05:45:15.046Z,8.77
2018-04-23T05:47:42.514Z,8.20
2018-04-23T05:50:09.980Z,7.97
2018-04-23T05:52:37.534Z,5.80
2018-04-23T05:55:05.056Z,6.23
2018-04-23T05:57:32.465Z,5.17
2018-04-23T06:00:00.729Z,5.50
2018-04-23T06:02:28.189Z,5.77
2018-04-23T06:04:55.657Z,5.20
2018-04-23T06:07:23.123Z,6.73
2018-04-23T06:09:51.341Z,5.23
2018-04-23T06:12:18.838Z,5.70
2018-04-23T06:14:46.266Z,5.47
2018-04-23T06:17:13.748Z,5.10
2018-04-23T06:19:41.350Z,4.73
2018-04-23T06:22:09.538Z,5.10
2018-04-23T06:24:37.033Z,4.47
2018-04-23T06:27:04.603Z,5.67
2018-04-23T06:29:32.165Z,6.60
2018-04-23T06:31:59.624Z,5.30
2018-04-23T06:34:27.243Z,5.70
2018-04-23T06:36:54.697Z,4.83
2018-04-23T06:39:22.197Z,4.30
2018-04-23T06:41:49.756Z,4.20
2018-04-23T06:44:17.318Z,4.73
2018-04-23T06:46:45.592Z,4.93
2018-04-23T06:49:13.049Z,5.10
2018-04-23T06:51:40.612Z,6.17
2018-04-23T06:54:08.837Z,4.27
2018-04-23T06:56:36.296Z,4.30
2018-04-23T06:59:03.891Z,3.97
2018-04-23T07:01:31.369Z,3.83
2018-04-23T07:03:58.933Z,4.10
2018-04-23T07:06:26.385Z,4.40
2018-04-23T07:08:53.944Z,3.77
2018-04-23T07:11:21.404Z,3.93
2018-04-23T07:13:48.861Z,3.70
2018-04-23T07:16:16.417Z,3.73
2018-04-23T07:18:43.872Z,3.50
2018-04-23T07:21:11.334Z,3.73
2018-04-23T07:23:38.899Z,4.23
2018-04-23T07:26:06.465Z,3.73
2018-04-23T07:28:33.921Z,4.10
2018-04-23T07:31:01.383Z,3.83
2018-04-23T07:33:28.847Z,4.03
2018-04-23T07:35:56.304Z,3.80
2018-04-23T07:38:23.850Z,3.43
2018-04-23T07:40:51.305Z,3.80
2018-04-23T07:43:18.869Z,3.90
2018-04-23T07:45:46.434Z,3.83
2018-04-23T07:48:13.897Z,3.90
2018-04-23T07:50:41.448Z,4.03
2018-04-23T07:53:09.004Z,3.83
2018-04-23T07:55:36.465Z,4.30
2018-04-23T07:58:04.026Z,3.83
2018-04-23T08:00:31.584Z,8.43
2018-04-23T08:02:59.144Z,4.83
2018-04-23T08:05:26.600Z,4.27
2018-04-23T08:07:54.065Z,4.10
2018-04-23T08:10:21.621Z,4.00
2018-04-23T08:12:49.249Z,3.50
2018-04-23T08:15:16.742Z,3.70
2018-04-23T08:17:44.304Z,3.80
2018-04-23T08:20:11.760Z,4.40
2018-04-23T08:22:39.223Z,3.60
2018-04-23T08:25:06.776Z,4.00
2018-04-23T08:27:34.338Z,3.50
2018-04-23T08:30:01.902Z,3.97
2018-04-23T08:32:29.461Z,3.50
2018-04-23T08:34:56.924Z,3.53
2018-04-23T08:37:24.384Z,3.70
2018-04-23T08:39:51.844Z,3.80
2018-04-23T08:42:19.298Z,3.87
2018-04-23T08:44:46.765Z,4.03
2018-04-23T08:47:14.220Z,3.67
2018-04-23T08:49:41.781Z,3.83
2018-04-23T08:52:09.242Z,4.03
2018-04-23T08:54:37.469Z,4.07
2018-04-23T08:57:04.964Z,3.73
2018-04-23T08:59:32.521Z,3.93
2018-04-23T09:02:00.090Z,4.87
2018-04-23T09:04:27.549Z,3.90
2018-04-23T09:06:55.005Z,4.43
2018-04-23T09:09:22.561Z,3.47
2018-04-23T09:11:50.163Z,3.87
2018-04-23T09:14:17.592Z,3.30
2018-04-23T09:16:45.053Z,3.70
2018-04-23T09:19:12.601Z,3.53
2018-04-23T09:21:40.065Z,3.60
2018-04-23T09:24:07.520Z,3.53
2018-04-23T09:26:34.997Z,3.63
2018-04-23T09:29:03.249Z,3.70
2018-04-23T09:31:30.810Z,3.23
2018-04-23T09:33:58.274Z,4.10
2018-04-23T09:36:25.825Z,3.63
2018-04-23T09:38:53.283Z,3.73
2018-04-23T09:41:20.747Z,3.70
2018-04-23T09:43:49.019Z,3.60
2018-04-23T09:46:16.580Z,3.23
2018-04-23T09:48:44.042Z,3.37
2018-04-23T09:51:11.504Z,3.47
2018-04-23T09:53:38.970Z,3.37
2018-04-23T09:56:06.424Z,3.10
2018-04-23T09:58:33.922Z,3.03
2018-04-23T10:01:02.136Z,3.30
2018-04-23T10:03:35.506Z,3.20
2018-04-23T10:06:03.011Z,3.17
2018-04-23T10:08:30.568Z,3.00
2018-04-23T10:10:58.030Z,3.13
2018-04-23T10:13:25.497Z,3.00
2018-04-23T10:15:53.758Z,3.33
2018-04-23T10:18:21.237Z,3.23
2018-04-23T10:20:49.493Z,3.30
2018-04-23T10:23:16.953Z,3.10
2018-04-23T10:25:44.472Z,3.30
2018-04-23T10:28:11.970Z,3.37
2018-04-23T10:30:39.425Z,3.33
2018-04-23T10:33:06.989Z,3.80
2018-04-23T10:35:34.449Z,3.67
2018-04-23T10:38:02.721Z,4.17
2018-04-23T10:40:30.297Z,3.23
2018-04-23T10:42:57.752Z,3.60
2018-04-23T10:45:25.993Z,3.80
2018-04-23T10:47:53.449Z,4.13
2018-04-23T10:50:20.938Z,3.43
2018-04-23T10:52:48.393Z,4.10
2018-04-23T10:55:15.865Z,4.17
2018-04-23T10:57:43.314Z,3.97
2018-04-23T11:00:10.772Z,4.50
2018-04-23T11:02:38.230Z,4.10
2018-04-23T11:05:05.689Z,3.87
2018-04-23T11:07:33.172Z,4.83
2018-04-23T11:10:01.417Z,4.13
2018-04-23T11:12:28.985Z,4.33
2018-04-23T11:14:56.444Z,3.73
2018-04-23T11:17:23.905Z,4.10
2018-04-23T11:19:51.365Z,4.37
2018-04-23T11:22:18.825Z,4.73
2018-04-23T11:24:46.302Z,5.10
2018-04-23T11:27:14.552Z,4.23
2018-04-23T11:29:42.009Z,4.60
2018-04-23T11:32:09.474Z,4.00
2018-04-23T11:34:36.929Z,4.80
2018-04-23T11:37:04.485Z,3.90
2018-04-23T11:39:32.102Z,4.20
2018-04-23T11:41:59.554Z,3.97
2018-04-23T11:44:27.015Z,4.33
2018-04-23T11:46:54.477Z,4.20
2018-04-23T11:49:21.941Z,4.37
2018-04-23T11:51:49.428Z,4.13
2018-04-23T11:54:16.989Z,4.20
2018-04-23T11:56:44.448Z,4.23
2018-04-23T11:59:12.071Z,4.27
2018-04-23T12:01:39.481Z,4.10
2018-04-23T12:04:06.940Z,5.20
2018-04-23T12:06:34.409Z,5.17
2018-04-23T12:09:02.645Z,5.13
2018-04-23T12:11:30.117Z,4.10
2018-04-23T12:13:57.677Z,4.37
2018-04-23T12:16:25.249Z,4.53
2018-04-23T12:18:52.712Z,4.37
2018-04-23T12:21:20.260Z,3.90
2018-04-23T12:23:47.725Z,4.80
2018-04-23T12:26:15.996Z,4.80
2018-04-23T12:28:43.470Z,5.47
2018-04-23T12:31:10.931Z,5.17
2018-04-23T12:33:38.393Z,5.13
2018-04-23T12:36:06.630Z,4.87
2018-04-23T12:38:34.106Z,4.83
2018-04-23T12:41:01.572Z,4.93
2018-04-23T12:43:29.047Z,5.07
2018-04-23T12:45:57.308Z,5.20
2018-04-23T12:48:24.758Z,4.27
2018-04-23T12:50:52.335Z,5.10
2018-04-23T12:53:19.877Z,4.47
2018-04-23T12:55:47.345Z,4.70
2018-04-23T12:58:14.904Z,5.00
2018-04-23T13:00:43.234Z,4.27
2018-04-23T13:03:10.680Z,4.57
2018-04-23T13:05:38.145Z,4.90
2018-04-23T13:08:05.602Z,4.53
2018-04-23T13:10:33.109Z,4.53
2018-04-23T13:13:01.389Z,4.50
2018-04-23T13:15:28.953Z,5.37
2018-04-23T13:17:56.423Z,4.43
2018-04-23T13:20:24.645Z,4.70
2018-04-23T13:22:52.112Z,4.90
2018-04-23T13:25:19.609Z,5.00
2018-04-23T13:27:47.832Z,4.50
2018-04-23T13:30:15.334Z,4.47
2018-04-23T13:32:42.797Z,4.87
2018-04-23T13:35:10.251Z,4.83
2018-04-23T13:37:37.717Z,5.13
2018-04-23T13:40:05.945Z,6.10
2018-04-23T13:42:33.499Z,4.67
2018-04-23T13:45:01.007Z,5.30
2018-04-23T13:47:29.237Z,5.83
2018-04-23T13:49:56.701Z,5.90
2018-04-23T13:52:24.161Z,6.57
2018-04-23T13:54:51.683Z,5.30
2018-04-23T13:57:19.117Z,6.90
2018-04-23T13:59:46.677Z,6.70
2018-04-23T14:02:14.136Z,8.07
2018-04-23T14:04:41.685Z,6.83
2018-04-23T14:07:09.252Z,7.63
2018-04-23T14:09:36.717Z,7.83
2018-04-23T14:12:04.272Z,7.53
2018-04-23T14:14:31.829Z,7.53
2018-04-23T14:16:59.385Z,7.93
2018-04-23T14:19:27.626Z,7.93
2018-04-23T14:21:55.098Z,7.17
2018-04-23T14:24:22.578Z,6.53
2018-04-23T14:26:50.862Z,6.47
2018-04-23T14:29:18.427Z,5.73
2018-04-23T14:31:45.908Z,5.87
2018-04-23T14:34:14.148Z,6.40
2018-04-23T14:36:41.707Z,5.67
2018-04-23T14:39:09.200Z,6.20
2018-04-23T14:41:37.444Z,5.50
2018-04-23T14:44:05.017Z,5.10
2018-04-23T14:46:32.572Z,5.00
2018-04-23T14:49:00.040Z,5.17
2018-04-23T14:51:27.492Z,3.90
2018-04-23T14:53:54.961Z,4.10
2018-04-23T14:56:22.514Z,4.80
2018-04-23T14:58:49.985Z,4.33
2018-04-23T15:01:18.242Z,3.50
2018-04-23T15:03:45.700Z,4.50
2018-04-23T15:06:13.268Z,3.87
2018-04-23T15:08:41.539Z,4.10
2018-04-23T15:11:08.997Z,3.40
2018-04-23T15:13:36.563Z,3.97
2018-04-23T15:16:04.113Z,3.50
2018-04-23T15:18:31.588Z,3.57
2018-04-23T15:20:59.046Z,4.13
2018-04-23T15:23:26.509Z,4.57
2018-04-23T15:25:54.826Z,3.93
2018-04-23T15:28:22.331Z,3.70
2018-04-23T15:30:49.885Z,4.00
2018-04-23T15:33:17.496Z,4.30
2018-04-23T15:35:44.913Z,3.57
2018-04-23T15:38:13.185Z,4.10
2018-04-23T15:40:40.644Z,4.03
2018-04-23T15:43:08.106Z,3.83
2018-04-23T15:45:36.380Z,3.97
2018-04-23T15:48:03.845Z,4.53
2018-04-23T15:50:31.300Z,4.43
2018-04-23T15:52:58.766Z,3.87
2018-04-23T15:55:26.313Z,4.10
2018-04-23T15:57:53.874Z,4.80
2018-04-23T16:00:21.341Z,3.90
2018-04-23T16:02:48.888Z,3.67
2018-04-23T16:05:16.350Z,4.73
2018-04-23T16:07:43.909Z,4.10
2018-04-23T16:10:11.449Z,4.50
2018-04-23T16:12:38.933Z,4.97
2018-04-23T16:15:06.492Z,4.63
2018-04-23T16:17:34.065Z,3.87
2018-04-23T16:20:01.513Z,3.97
2018-04-23T16:22:29.786Z,3.70
2018-04-23T16:24:57.249Z,3.73
2018-04-23T16:27:24.715Z,7.67
2018-04-23T16:29:52.181Z,4.30
2018-04-23T16:32:20.435Z,4.10
2018-04-23T16:34:47.994Z,4.10
2018-04-23T16:37:15.551Z,4.10
2018-04-23T16:39:43.118Z,6.40
2018-04-23T16:42:10.590Z,12.03
2018-04-23T16:44:39.418Z,10.53
2018-04-23T16:47:05.697Z,14.70
2018-04-23T16:49:33.169Z,6.43
2018-04-23T16:52:00.721Z,6.17
2018-04-23T16:54:28.190Z,3.60
2018-04-23T16:56:55.726Z,5.10
2018-04-23T16:59:23.292Z,5.13
2018-04-23T17:01:50.853Z,4.37
2018-04-23T17:04:18.325Z,4.43
2018-04-23T17:06:45.790Z,3.80
2018-04-23T17:09:14.046Z,4.63
2018-04-23T17:11:41.521Z,4.60
2018-04-23T17:14:08.989Z,4.70
2018-04-23T17:16:37.229Z,4.00
2018-04-23T17:19:04.690Z,4.17
2018-04-23T17:21:32.169Z,3.97
2018-04-23T17:23:59.721Z,4.87
2018-04-23T17:26:27.221Z,5.50
2018-04-23T17:28:54.687Z,4.40
2018-04-23T17:31:22.154Z,4.37
2018-04-23T17:33:49.653Z,7.83
2018-04-23T17:36:17.222Z,4.93
2018-04-23T17:38:44.791Z,6.60
2018-04-23T17:41:12.279Z,6.50
2018-04-23T17:43:40.509Z,5.97
2018-04-23T17:46:08.071Z,5.30
2018-04-23T17:48:35.549Z,4.90
2018-04-23T17:51:03.783Z,5.77
2018-04-23T17:53:31.261Z,5.03
2018-04-23T17:55:58.752Z,5.40
2018-04-23T17:58:27.000Z,5.57
2018-04-23T18:00:55.228Z,5.23
2018-04-23T18:03:22.795Z,3.73
2018-04-23T18:05:50.314Z,4.70
2018-04-23T18:08:17.733Z,4.17
2018-04-23T18:10:45.592Z,4.67
2018-04-23T18:13:13.100Z,4.67
2018-04-23T18:15:41.333Z,4.73
2018-04-23T18:18:08.792Z,5.37
2018-04-23T18:20:36.387Z,4.57
2018-04-23T18:23:03.938Z,4.70
2018-04-23T18:25:31.413Z,5.07
2018-04-23T18:27:59.657Z,4.37
2018-04-23T18:30:27.128Z,4.93
2018-04-23T18:32:54.680Z,4.10
2018-04-23T18:35:22.254Z,5.73
2018-04-23T18:37:49.728Z,6.60
2018-04-23T18:40:17.954Z,9.03
2018-04-23T18:42:45.433Z,10.63
2018-04-23T18:45:12.938Z,16.20
2018-04-23T18:47:40.453Z,9.67
2018-04-23T18:50:07.930Z,9.50
2018-04-23T18:52:35.486Z,6.13
2018-04-23T18:55:02.956Z,6.93
2018-04-23T18:57:31.223Z,5.03
2018-04-23T18:59:58.680Z,5.23
2018-04-23T19:02:26.286Z,5.70
2018-04-23T19:04:53.759Z,5.40
2018-04-23T19:07:21.225Z,4.73
2018-04-23T19:09:48.689Z,5.13
2018-04-23T19:12:16.157Z,4.87
2018-04-23T19:14:43.730Z,4.93
2018-04-23T19:17:11.201Z,5.27
2018-04-23T19:19:38.656Z,5.80
2018-04-23T19:22:06.918Z,5.57
2018-04-23T19:24:34.384Z,5.03
2018-04-23T19:27:01.936Z,4.40
2018-04-23T19:29:29.421Z,4.73
2018-04-23T19:31:57.648Z,5.20
2018-04-23T19:34:25.152Z,4.67
2018-04-23T19:36:53.427Z,4.83
2018-04-23T19:39:20.957Z,4.37
2018-04-23T19:41:48.532Z,5.77
2018-04-23T19:44:16.002Z,5.03
2018-04-23T19:46:44.249Z,5.47
2018-04-23T19:49:11.812Z,5.37
2018-04-23T19:51:39.272Z,5.20
2018-04-23T19:54:07.496Z,6.00
2018-04-23T19:56:35.071Z,5.03
2018-04-23T19:59:02.585Z,5.30
2018-04-23T20:01:30.050Z,5.03
2018-04-23T20:03:57.517Z,5.33
2018-04-23T20:06:25.793Z,5.93
2018-04-23T20:08:54.056Z,6.73
2018-04-23T20:11:22.293Z,6.13
2018-04-23T20:13:49.793Z,5.13
2018-04-23T20:16:17.253Z,5.83
2018-04-23T20:18:45.484Z,5.53
2018-04-23T20:21:12.973Z,4.77
2018-04-23T20:23:40.447Z,5.30
2018-04-23T20:26:07.993Z,4.80
2018-04-23T20:28:35.480Z,5.00
2018-04-23T20:31:03.720Z,4.93
2018-04-23T20:33:31.194Z,5.23
2018-04-23T20:35:58.742Z,5.07
2018-04-23T20:38:26.252Z,5.30
2018-04-23T20:40:53.761Z,4.47
2018-04-23T20:43:21.221Z,5.10
2018-04-23T20:45:48.788Z,5.17
2018-04-23T20:48:16.253Z,5.20
2018-04-23T20:50:43.745Z,4.77
2018-04-23T20:53:11.961Z,4.80
2018-04-23T20:55:39.434Z,5.17
2018-04-23T20:58:06.900Z,4.30
2018-04-23T21:00:34.374Z,4.43
2018-04-23T21:03:02.631Z,4.67
2018-04-23T21:05:30.187Z,4.93
2018-04-23T21:07:57.656Z,5.10
2018-04-23T21:10:25.127Z,5.30
2018-04-23T21:12:53.377Z,5.30
2018-04-23T21:15:20.864Z,5.80
2018-04-23T21:17:49.130Z,6.53
2018-04-23T21:20:16.672Z,5.37
2018-04-23T21:22:44.239Z,6.40
2018-04-23T21:25:11.701Z,8.53
2018-04-23T21:27:39.249Z,11.40
2018-04-23T21:30:06.817Z,7.67
2018-04-23T21:32:34.373Z,13.13
2018-04-23T21:35:01.841Z,14.67
2018-04-23T21:37:29.304Z,12.00
2018-04-23T21:39:56.851Z,8.90
2018-04-23T21:42:24.310Z,6.00
2018-04-23T21:44:51.773Z,6.83
2018-04-23T21:47:19.240Z,5.87
2018-04-23T21:49:46.709Z,6.07
2018-04-23T21:52:14.937Z,7.50
2018-04-23T21:54:42.404Z,6.67
2018-04-23T21:57:09.867Z,7.27
2018-04-23T21:59:37.331Z,7.67
2018-04-23T22:02:04.804Z,6.87
2018-04-23T22:04:32.261Z,7.10
2018-04-23T22:06:59.733Z,6.97
2018-04-23T22:09:27.970Z,6.60
2018-04-23T22:11:55.503Z,7.80
2018-04-23T22:14:23.004Z,7.40
2018-04-23T22:16:50.520Z,7.37
2018-04-23T22:19:17.977Z,7.57
2018-04-23T22:21:45.539Z,7.97
2018-04-23T22:24:12.999Z,6.47
2018-04-23T22:26:40.557Z,7.70
2018-04-23T22:29:08.068Z,6.10
2018-04-23T22:31:35.532Z,6.73
2018-04-23T22:34:03.078Z,6.37
2018-04-23T22:36:30.544Z,6.43
2018-04-23T22:38:58.016Z,7.57
2018-04-23T22:41:26.253Z,6.43
2018-04-23T22:43:53.787Z,6.57
2018-04-23T22:46:21.296Z,6.13
2018-04-23T22:48:48.760Z,6.17
2018-04-23T22:51:16.308Z,6.57
2018-04-23T22:53:43.864Z,6.00
2018-04-23T22:56:11.425Z,6.30
2018-04-23T22:58:38.985Z,6.10
2018-04-23T23:01:06.440Z,6.80
2018-04-23T23:03:33.908Z,5.93
2018-04-23T23:06:01.465Z,5.60
2018-04-23T23:08:28.937Z,5.53
2018-04-23T23:10:56.377Z,5.50
2018-04-23T23:13:23.941Z,5.60
2018-04-23T23:15:51.412Z,6.20
2018-04-23T23:18:18.960Z,6.27
2018-04-23T23:20:46.521Z,6.03
2018-04-23T23:23:14.083Z,6.53
2018-04-23T23:25:41.537Z,6.27
2018-04-23T23:28:09.005Z,5.13
2018-04-23T23:30:36.469Z,6.10
2018-04-23T23:33:03.925Z,6.50
2018-04-23T23:35:31.405Z,5.87
2018-04-23T23:37:59.645Z,6.40
2018-04-23T23:40:27.885Z,6.40
2018-04-23T23:42:55.385Z,6.07
2018-04-23T23:45:23.019Z,6.70
2018-04-23T23:47:50.402Z,5.47
2018-04-23T23:50:17.865Z,6.13
2018-04-23T23:52:45.413Z,6.03
2018-04-23T23:55:12.989Z,6.23
2018-04-23T23:57:40.541Z,6.37
